Terminal Aerodrome Forecast
Issued by NWS

Current Version | Previous Version | Text Only | Print | Product List | Glossary Off
Versions: 1 2 3 4 5 6 7 8 9 10 11 12 13 14 15 16 17 18 19 20

466
FTUS41 KPBZ 230531
TAFHLG
TAF
KHLG 230531Z 2306/2406 20005KT P6SM OVC015
     FM230800 19008KT P6SM OVC008
     FM231600 22010KT P6SM VCSH BKN015
     FM232000 19008KT P6SM BKN020=

USA.gov is the U.S. government's official web portal to all federal, state and local government web resources and services.